Private Wetterstation Wechselburg
Wetterdaten: Mittwoch, 16.12.2020
Datum Zeit Temp. +2m Bodentemp. Temp.+5cm Temp. Wind Windchill X Diff Temp. Feuchte +2m Feuchte +5cm Luftdruck Regen Wind Richtung Richtung Sonnenschein Taupunkt Windchill Windben
16.12.2020 00:00 7,5 C 6,6 C 6,7 C 7,9 C 7,9 C 0,4 C 87 % 92 % 1018,6 hPa 0,0 l/m 1,0 km/h (0 Bft) S-SO 157 0 min 5,5 C 7,9 C 0,0 km/h (0 Bft)
16.12.2020 00:05 7,5 C 6,6 C 6,7 C 8,0 C 8,0 C 0,5 C 86 % 92 % 1018,6 hPa 0,0 l/m 1,1 km/h (1 Bft) O-SO 112 0 min 5,3 C 8,0 C 6,6 km/h (2 Bft)
16.12.2020 00:10 7,6 C 6,6 C 6,8 C 8,0 C 8,0 C 0,4 C 86 % 92 % 1018,8 hPa 0,0 l/m 1,6 km/h (1 Bft) W-SW 247 0 min 5,4 C 8,0 C 2,1 km/h (1 Bft)
16.12.2020 00:15 7,6 C 6,6 C 6,9 C 8,1 C 8,1 C 0,5 C 86 % 92 % 1018,8 hPa 0,0 l/m 3,1 km/h (1 Bft) S-SO 157 0 min 5,4 C 8,1 C 12,9 km/h (3 Bft)
16.12.2020 00:20 7,7 C 6,6 C 6,9 C 8,2 C 8,2 C 0,5 C 86 % 92 % 1018,8 hPa 0,0 l/m 3,4 km/h (1 Bft) O-SO 112 0 min 5,5 C 8,2 C 7,1 km/h (2 Bft)
16.12.2020 00:25 7,9 C 6,6 C 7,1 C 8,2 C 8,2 C 0,3 C 86 % 93 % 1018,8 hPa 0,0 l/m 3,9 km/h (1 Bft) SO 135 0 min 5,7 C 8,2 C 12,2 km/h (2 Bft)
16.12.2020 00:30 7,9 C 6,6 C 7,1 C 8,2 C 8,2 C 0,3 C 86 % 93 % 1018,6 hPa 0,0 l/m 4,0 km/h (1 Bft) S 180 0 min 5,7 C 8,2 C 3,7 km/h (1 Bft)
16.12.2020 00:35 8,0 C 6,6 C 7,1 C 8,3 C 8,3 C 0,3 C 86 % 93 % 1018,6 hPa 0,0 l/m 3,4 km/h (1 Bft) S 180 0 min 5,8 C 8,3 C 0,0 km/h (0 Bft)
16.12.2020 00:40 8,0 C 6,6 C 7,1 C 8,3 C 8,3 C 0,3 C 86 % 93 % 1018,6 hPa 0,0 l/m 2,4 km/h (1 Bft) S-SO 157 0 min 5,8 C 8,3 C 3,2 km/h (1 Bft)
16.12.2020 00:45 8,0 C 6,6 C 7,1 C 8,2 C 8,2 C 0,2 C 85 % 93 % 1018,6 hPa 0,0 l/m 2,9 km/h (1 Bft) S-SO 157 0 min 5,6 C 8,2 C 6,1 km/h (2 Bft)
16.12.2020 00:50 8,0 C 6,6 C 7,1 C 8,2 C 8,2 C 0,2 C 85 % 93 % 1018,9 hPa 0,0 l/m 3,7 km/h (1 Bft) S-SO 157 0 min 5,6 C 8,2 C 7,9 km/h (2 Bft)
16.12.2020 00:55 8,1 C 6,6 C 7,1 C 8,2 C 8,2 C 0,1 C 85 % 93 % 1018,9 hPa 0,0 l/m 3,2 km/h (1 Bft) O-SO 112 0 min 5,7 C 8,2 C 8,4 km/h (2 Bft)
16.12.2020 01:00 8,0 C 6,6 C 7,1 C 8,2 C 8,2 C 0,2 C 85 % 93 % 1018,9 hPa 0,0 l/m 2,7 km/h (1 Bft) SO 135 0 min 5,6 C 8,2 C 1,9 km/h (1 Bft)
16.12.2020 01:05 8,0 C 6,6 C 7,1 C 8,2 C 8,2 C 0,2 C 85 % 93 % 1018,9 hPa 0,0 l/m 2,7 km/h (1 Bft) SW 225 0 min 5,6 C 8,2 C 4,8 km/h (1 Bft)
16.12.2020 01:10 8,0 C 6,6 C 7,1 C 8,2 C 8,2 C 0,2 C 85 % 93 % 1019,1 hPa 0,0 l/m 2,9 km/h (1 Bft) SO 135 0 min 5,6 C 8,2 C 0,0 km/h (0 Bft)
16.12.2020 01:15 8,0 C 6,6 C 7,1 C 8,2 C 8,2 C 0,2 C 85 % 92 % 1019,1 hPa 0,0 l/m 3,1 km/h (1 Bft) S-SW 202 0 min 5,6 C 8,2 C 4,3 km/h (1 Bft)
16.12.2020 01:20 8,0 C 6,6 C 7,1 C 8,2 C 8,2 C 0,2 C 85 % 93 % 1019,1 hPa 0,0 l/m 2,6 km/h (1 Bft) W-SW 247 0 min 5,6 C 8,2 C 4,0 km/h (1 Bft)
16.12.2020 01:25 8,0 C 6,6 C 7,1 C 8,2 C 8,2 C 0,2 C 85 % 93 % 1019,1 hPa 0,0 l/m 2,6 km/h (1 Bft) O-SO 112 0 min 5,6 C 8,2 C 2,1 km/h (1 Bft)
16.12.2020 01:30 8,0 C 6,6 C 7,1 C 8,2 C 8,2 C 0,2 C 85 % 92 % 1019,2 hPa 0,0 l/m 2,3 km/h (1 Bft) S 180 0 min 5,6 C 8,2 C 3,5 km/h (1 Bft)
16.12.2020 01:35 8,0 C 6,6 C 7,1 C 8,2 C 8,2 C 0,2 C 85 % 92 % 1019,2 hPa 0,0 l/m 2,7 km/h (1 Bft) S 180 0 min 5,6 C 8,2 C 6,9 km/h (2 Bft)
16.12.2020 01:40 8,0 C 6,6 C 7,1 C 8,2 C 8,2 C 0,2 C 85 % 92 % 1019,2 hPa 0,0 l/m 2,6 km/h (1 Bft) S-SO 157 0 min 5,6 C 8,2 C 0,0 km/h (0 Bft)
16.12.2020 01:45 7,9 C 6,7 C 7,1 C 8,2 C 8,2 C 0,3 C 85 % 92 % 1019,2 hPa 0,0 l/m 1,6 km/h (1 Bft) S-SW 202 0 min 5,5 C 8,2 C 3,2 km/h (1 Bft)
16.12.2020 01:50 7,9 C 6,7 C 7,1 C 8,1 C 8,1 C 0,2 C 85 % 92 % 1019,5 hPa 0,0 l/m 1,3 km/h (1 Bft) S 180 0 min 5,5 C 8,1 C 2,4 km/h (1 Bft)
16.12.2020 01:55 7,9 C 6,7 C 7,0 C 8,1 C 8,1 C 0,2 C 85 % 92 % 1019,5 hPa 0,0 l/m 1,1 km/h (1 Bft) SW 225 0 min 5,5 C 8,1 C 3,2 km/h (1 Bft)
16.12.2020 02:00 7,9 C 6,7 C 7,0 C 8,1 C 8,1 C 0,2 C 85 % 92 % 1019,5 hPa 0,0 l/m 0,8 km/h (0 Bft) O 90 0 min 5,5 C 8,1 C 0,0 km/h (0 Bft)
16.12.2020 02:05 7,8 C 6,7 C 6,9 C 8,1 C 8,1 C 0,3 C 85 % 92 % 1019,5 hPa 0,0 l/m 0,3 km/h (0 Bft) W-SW 247 0 min 5,4 C 8,1 C 0,0 km/h (0 Bft)
16.12.2020 02:10 7,9 C 6,7 C 7,0 C 8,1 C 8,1 C 0,2 C 85 % 92 % 1019,6 hPa 0,0 l/m 0,6 km/h (0 Bft) SO 135 0 min 5,5 C 8,1 C 2,7 km/h (1 Bft)
16.12.2020 02:15 7,8 C 6,7 C 7,0 C 8,1 C 8,1 C 0,3 C 85 % 92 % 1019,6 hPa 0,0 l/m 1,8 km/h (1 Bft) S-SW 202 0 min 5,4 C 8,1 C 3,2 km/h (1 Bft)
16.12.2020 02:20 7,9 C 6,7 C 7,0 C 8,1 C 8,1 C 0,2 C 85 % 92 % 1019,6 hPa 0,0 l/m 1,9 km/h (1 Bft) SO 135 0 min 5,5 C 8,1 C 1,8 km/h (1 Bft)
16.12.2020 02:25 7,9 C 6,7 C 7,0 C 8,1 C 8,1 C 0,2 C 85 % 92 % 1019,6 hPa 0,0 l/m 1,8 km/h (1 Bft) S-SO 157 0 min 5,5 C 8,1 C 2,9 km/h (1 Bft)
16.12.2020 02:30 7,8 C 6,7 C 7,0 C 8,1 C 8,1 C 0,3 C 85 % 92 % 1019,5 hPa 0,0 l/m 1,4 km/h (1 Bft) S-SO 157 0 min 5,4 C 8,1 C 0,0 km/h (0 Bft)
16.12.2020 02:35 7,8 C 6,7 C 6,9 C 8,1 C 8,1 C 0,3 C 85 % 92 % 1019,5 hPa 0,0 l/m 1,1 km/h (1 Bft) S 180 0 min 5,4 C 8,1 C 3,5 km/h (1 Bft)
16.12.2020 02:40 7,9 C 6,7 C 6,9 C 8,1 C 8,1 C 0,2 C 85 % 92 % 1019,5 hPa 0,0 l/m 1,1 km/h (1 Bft) SO 135 0 min 5,5 C 8,1 C 2,4 km/h (1 Bft)
16.12.2020 02:45 7,9 C 6,7 C 7,0 C 8,1 C 8,1 C 0,2 C 85 % 92 % 1019,5 hPa 0,0 l/m 0,8 km/h (0 Bft) W 270 0 min 5,5 C 8,1 C 0,0 km/h (0 Bft)
16.12.2020 02:50 7,9 C 6,7 C 6,9 C 8,0 C 8,0 C 0,1 C 85 % 92 % 1020,1 hPa 0,0 l/m 0,5 km/h (0 Bft) SO 135 0 min 5,5 C 8,0 C 0,0 km/h (0 Bft)
16.12.2020 02:55 7,9 C 6,8 C 6,9 C 8,0 C 8,0 C 0,1 C 85 % 92 % 1020,1 hPa 0,0 l/m 0,3 km/h (0 Bft) W-SW 247 0 min 5,5 C 8,0 C 0,0 km/h (0 Bft)
16.12.2020 03:00 7,9 C 6,8 C 6,8 C 8,0 C 8,0 C 0,1 C 85 % 92 % 1020,1 hPa 0,0 l/m 0,2 km/h (0 Bft) W-SW 247 0 min 5,5 C 8,0 C 0,0 km/h (0 Bft)
16.12.2020 03:05 7,7 C 6,8 C 6,7 C 8,0 C 8,0 C 0,3 C 85 % 92 % 1020,1 hPa 0,0 l/m 0,0 km/h (0 Bft) W-SW 247 0 min 5,3 C 8,0 C 0,0 km/h (0 Bft)
16.12.2020 03:10 7,7 C 6,8 C 6,7 C 7,9 C 7,9 C 0,2 C 85 % 92 % 1019,7 hPa 0,0 l/m 0,0 km/h (0 Bft) W-SW 247 0 min 5,3 C 7,9 C 0,0 km/h (0 Bft)
16.12.2020 03:15 7,7 C 6,8 C 6,8 C 8,0 C 8,0 C 0,3 C 85 % 92 % 1019,7 hPa 0,0 l/m 1,3 km/h (1 Bft) S-SO 157 0 min 5,3 C 8,0 C 3,2 km/h (1 Bft)
16.12.2020 03:20 7,7 C 6,8 C 6,8 C 8,0 C 8,0 C 0,3 C 86 % 92 % 1019,7 hPa 0,0 l/m 2,7 km/h (1 Bft) S-SO 157 0 min 5,5 C 8,0 C 3,9 km/h (1 Bft)
16.12.2020 03:25 7,9 C 6,8 C 6,9 C 8,0 C 8,0 C 0,1 C 86 % 92 % 1019,7 hPa 0,0 l/m 2,6 km/h (1 Bft) O-NO 67 0 min 5,7 C 8,0 C 0,0 km/h (0 Bft)
16.12.2020 03:30 7,9 C 6,8 C 6,9 C 8,0 C 8,0 C 0,1 C 85 % 92 % 1020,1 hPa 0,0 l/m 1,4 km/h (1 Bft) S-SW 202 0 min 5,5 C 8,0 C 1,6 km/h (1 Bft)
16.12.2020 03:35 7,7 C 6,8 C 6,8 C 8,0 C 8,0 C 0,3 C 86 % 92 % 1020,1 hPa 0,0 l/m 1,0 km/h (0 Bft) S-SO 157 0 min 5,5 C 8,0 C 2,4 km/h (1 Bft)
16.12.2020 03:40 7,9 C 6,8 C 6,8 C 8,0 C 8,0 C 0,1 C 86 % 92 % 1020,1 hPa 0,0 l/m 1,6 km/h (1 Bft) S 180 0 min 5,7 C 8,0 C 3,1 km/h (1 Bft)
16.12.2020 03:45 7,8 C 6,8 C 6,8 C 8,0 C 8,0 C 0,2 C 85 % 92 % 1020,1 hPa 0,0 l/m 1,4 km/h (1 Bft) SO 135 0 min 5,4 C 8,0 C 0,0 km/h (0 Bft)
16.12.2020 03:50 7,8 C 6,8 C 6,8 C 8,0 C 8,0 C 0,2 C 86 % 92 % 1020,0 hPa 0,0 l/m 1,0 km/h (0 Bft) S-SO 157 0 min 5,6 C 8,0 C 2,4 km/h (1 Bft)
16.12.2020 03:55 7,7 C 6,8 C 6,8 C 8,0 C 8,0 C 0,3 C 86 % 92 % 1020,0 hPa 0,0 l/m 1,3 km/h (1 Bft) SO 135 0 min 5,5 C 8,0 C 2,4 km/h (1 Bft)
16.12.2020 04:00 7,8 C 6,8 C 6,8 C 8,0 C 8,0 C 0,2 C 86 % 92 % 1020,0 hPa 0,0 l/m 1,8 km/h (1 Bft) W-SW 247 0 min 5,6 C 8,0 C 2,7 km/h (1 Bft)
16.12.2020 04:05 7,7 C 6,8 C 6,8 C 8,0 C 8,0 C 0,3 C 86 % 92 % 1020,0 hPa 0,0 l/m 1,8 km/h (1 Bft) SO 135 0 min 5,5 C 8,0 C 0,0 km/h (0 Bft)
16.12.2020 04:10 7,7 C 6,8 C 6,8 C 7,8 C 7,8 C 0,1 C 86 % 92 % 1020,0 hPa 0,0 l/m 1,1 km/h (1 Bft) SO 135 0 min 5,5 C 7,8 C 2,3 km/h (1 Bft)
16.12.2020 04:15 7,7 C 6,8 C 6,7 C 7,7 C 7,7 C 0,0 C 85 % 92 % 1020,0 hPa 0,0 l/m 0,3 km/h (0 Bft) SW 225 0 min 5,3 C 7,7 C 0,0 km/h (0 Bft)
16.12.2020 04:20 7,6 C 6,8 C 6,7 C 7,6 C 7,5 C 0,0 C 85 % 92 % 1020,0 hPa 0,0 l/m 1,0 km/h (0 Bft) S 180 0 min 5,2 C 7,5 C 4,0 km/h (1 Bft)
16.12.2020 04:25 7,6 C 6,8 C 6,7 C 7,6 C 7,6 C 0,0 C 85 % 92 % 1020,0 hPa 0,0 l/m 1,1 km/h (1 Bft) SW 225 0 min 5,2 C 7,6 C 2,1 km/h (1 Bft)
16.12.2020 04:30 7,6 C 6,8 C 6,7 C 7,6 C 7,6 C 0,0 C 85 % 92 % 1020,1 hPa 0,0 l/m 1,1 km/h (1 Bft) SW 225 0 min 5,2 C 7,6 C 0,0 km/h (0 Bft)
16.12.2020 04:35 7,6 C 6,8 C 6,6 C 7,6 C 7,6 C 0,0 C 85 % 92 % 1020,1 hPa 0,0 l/m 1,6 km/h (1 Bft) SW 225 0 min 5,2 C 7,6 C 2,3 km/h (1 Bft)
16.12.2020 04:40 7,6 C 6,8 C 6,6 C 7,6 C 7,6 C 0,0 C 86 % 92 % 1020,1 hPa 0,0 l/m 1,3 km/h (1 Bft) SW 225 0 min 5,4 C 7,6 C 0,0 km/h (0 Bft)
16.12.2020 04:45 7,5 C 6,8 C 6,6 C 7,6 C 7,6 C 0,1 C 86 % 92 % 1020,1 hPa 0,0 l/m 0,6 km/h (0 Bft) S 180 0 min 5,3 C 7,6 C 0,0 km/h (0 Bft)
16.12.2020 04:50 7,5 C 6,8 C 6,6 C 7,7 C 7,7 C 0,2 C 86 % 92 % 1020,0 hPa 0,0 l/m 0,3 km/h (0 Bft) SW 225 0 min 5,3 C 7,7 C 0,0 km/h (0 Bft)
16.12.2020 04:55 7,5 C 6,8 C 6,6 C 7,7 C 7,7 C 0,2 C 86 % 92 % 1020,0 hPa 0,0 l/m 0,3 km/h (0 Bft) SW 225 0 min 5,3 C 7,7 C 0,0 km/h (0 Bft)
16.12.2020 05:00 7,5 C 6,9 C 6,5 C 7,6 C 7,6 C 0,1 C 86 % 92 % 1020,0 hPa 0,0 l/m 0,2 km/h (0 Bft) SW 225 0 min 5,3 C 7,6 C 0,0 km/h (0 Bft)
16.12.2020 05:05 7,4 C 6,9 C 6,5 C 7,7 C 7,7 C 0,3 C 86 % 92 % 1020,0 hPa 0,0 l/m 0,2 km/h (0 Bft) SW 225 0 min 5,2 C 7,7 C 0,0 km/h (0 Bft)
16.12.2020 05:10 7,4 C 6,9 C 6,4 C 7,5 C 7,5 C 0,1 C 86 % 92 % 1020,9 hPa 0,0 l/m 0,0 km/h (0 Bft) SW 225 0 min 5,2 C 7,5 C 0,0 km/h (0 Bft)
16.12.2020 05:15 7,3 C 6,9 C 6,3 C 7,5 C 7,5 C 0,2 C 86 % 92 % 1020,9 hPa 0,0 l/m 0,0 km/h (0 Bft) SW 225 0 min 5,1 C 7,5 C 0,0 km/h (0 Bft)
16.12.2020 05:20 7,2 C 6,9 C 6,3 C 7,5 C 7,5 C 0,3 C 86 % 92 % 1020,9 hPa 0,0 l/m 0,0 km/h (0 Bft) SW 225 0 min 5,0 C 7,5 C 0,0 km/h (0 Bft)
16.12.2020 05:25 7,2 C 6,9 C 6,3 C 7,4 C 7,4 C 0,2 C 86 % 92 % 1020,9 hPa 0,0 l/m 0,0 km/h (0 Bft) SW 225 0 min 5,0 C 7,4 C 0,0 km/h (0 Bft)
16.12.2020 05:30 7,2 C 6,9 C 6,2 C 7,3 C 7,3 C 0,1 C 86 % 92 % 1020,8 hPa 0,0 l/m 0,0 km/h (0 Bft) SW 225 0 min 5,0 C 7,3 C 0,0 km/h (0 Bft)
16.12.2020 05:35 7,1 C 6,9 C 6,2 C 7,3 C 7,3 C 0,2 C 85 % 92 % 1020,8 hPa 0,0 l/m 0,0 km/h (0 Bft) SW 225 0 min 4,8 C 7,3 C 0,0 km/h (0 Bft)
16.12.2020 05:40 7,1 C 6,9 C 6,1 C 7,3 C 7,3 C 0,2 C 85 % 92 % 1020,8 hPa 0,0 l/m 0,0 km/h (0 Bft) SW 225 0 min 4,8 C 7,3 C 0,0 km/h (0 Bft)
16.12.2020 05:45 7,1 C 6,9 C 6,1 C 7,2 C 7,2 C 0,1 C 85 % 92 % 1020,8 hPa 0,0 l/m 0,0 km/h (0 Bft) SW 225 0 min 4,8 C 7,2 C 0,0 km/h (0 Bft)
16.12.2020 05:50 7,0 C 6,9 C 6,1 C 7,2 C 7,2 C 0,2 C 85 % 92 % 1020,9 hPa 0,0 l/m 0,0 km/h (0 Bft) SW 225 0 min 4,7 C 7,2 C 0,0 km/h (0 Bft)
16.12.2020 05:55 7,1 C 6,9 C 6,1 C 7,1 C 7,1 C 0,0 C 85 % 92 % 1020,9 hPa 0,0 l/m 0,0 km/h (0 Bft) SW 225 0 min 4,8 C 7,1 C 0,0 km/h (0 Bft)
16.12.2020 06:00 7,0 C 6,9 C 6,0 C 7,0 C 7,0 C 0,0 C 85 % 92 % 1020,9 hPa 0,0 l/m 0,0 km/h (0 Bft) SW 225 0 min 4,7 C 7,0 C 0,0 km/h (0 Bft)
16.12.2020 06:05 6,9 C 6,9 C 6,0 C 7,0 C 7,0 C 0,1 C 85 % 92 % 1020,9 hPa 0,0 l/m 0,0 km/h (0 Bft) SW 225 0 min 4,6 C 7,0 C 0,0 km/h (0 Bft)
16.12.2020 06:10 6,9 C 7,1 C 6,0 C 7,1 C 7,1 C 0,2 C 86 % 92 % 1021,1 hPa 0,0 l/m 0,0 km/h (0 Bft) SW 225 0 min 4,7 C 7,1 C 0,0 km/h (0 Bft)
16.12.2020 06:15 6,8 C 7,1 C 6,0 C 7,1 C 7,1 C 0,3 C 86 % 92 % 1021,1 hPa 0,0 l/m 0,0 km/h (0 Bft) SW 225 0 min 4,6 C 7,1 C 0,0 km/h (0 Bft)
16.12.2020 06:20 6,8 C 7,1 C 6,0 C 7,1 C 7,1 C 0,3 C 86 % 92 % 1021,1 hPa 0,0 l/m 0,0 km/h (0 Bft) SW 225 0 min 4,6 C 7,1 C 0,0 km/h (0 Bft)
16.12.2020 06:25 6,8 C 7,1 C 6,0 C 7,1 C 7,1 C 0,3 C 86 % 92 % 1021,1 hPa 0,0 l/m 0,0 km/h (0 Bft) SW 225 0 min 4,6 C 7,1 C 0,0 km/h (0 Bft)
16.12.2020 06:30 6,8 C 7,1 C 6,0 C 7,1 C 7,1 C 0,3 C 86 % 92 % 1020,7 hPa 0,0 l/m 0,0 km/h (0 Bft) SW 225 0 min 4,6 C 7,1 C 0,0 km/h (0 Bft)
16.12.2020 06:35 6,8 C 7,1 C 6,0 C 7,1 C 7,1 C 0,3 C 86 % 92 % 1020,7 hPa 0,0 l/m 0,0 km/h (0 Bft) SW 225 0 min 4,6 C 7,1 C 0,0 km/h (0 Bft)
16.12.2020 06:40 6,8 C 7,1 C 6,0 C 7,1 C 7,1 C 0,3 C 86 % 92 % 1020,7 hPa 0,0 l/m 0,0 km/h (0 Bft) SW 225 0 min 4,6 C 7,1 C 0,0 km/h (0 Bft)
16.12.2020 06:45 6,7 C 7,1 C 6,0 C 7,1 C 7,1 C 0,4 C 86 % 92 % 1020,7 hPa 0,0 l/m 0,0 km/h (0 Bft) SW 225 0 min 4,5 C 7,1 C 0,0 km/h (0 Bft)
16.12.2020 06:50 6,7 C 7,1 C 6,0 C 7,1 C 7,1 C 0,4 C 86 % 92 % 1020,9 hPa 0,0 l/m 0,0 km/h (0 Bft) SW 225 0 min 4,5 C 7,1 C 0,0 km/h (0 Bft)
16.12.2020 06:55 6,7 C 7,1 C 6,0 C 7,1 C 7,1 C 0,4 C 86 % 92 % 1020,9 hPa 0,0 l/m 0,0 km/h (0 Bft) SW 225 0 min 4,5 C 7,1 C 0,0 km/h (0 Bft)
16.12.2020 07:00 6,6 C 7,1 C 6,0 C 7,1 C 7,1 C 0,5 C 86 % 92 % 1020,9 hPa 0,0 l/m 0,0 km/h (0 Bft) SW 225 0 min 4,4 C 7,1 C 0,0 km/h (0 Bft)
16.12.2020 07:05 6,7 C 7,1 C 6,0 C 7,1 C 7,1 C 0,4 C 86 % 92 % 1020,9 hPa 0,0 l/m 0,0 km/h (0 Bft) SW 225 0 min 4,5 C 7,1 C 0,0 km/h (0 Bft)
16.12.2020 07:10 6,7 C 7,1 C 5,9 C 7,1 C 7,1 C 0,4 C 86 % 92 % 1020,9 hPa 0,0 l/m 0,0 km/h (0 Bft) SW 225 0 min 4,5 C 7,1 C 0,0 km/h (0 Bft)
16.12.2020 07:15 6,7 C 7,1 C 6,0 C 7,1 C 7,1 C 0,4 C 86 % 92 % 1020,9 hPa 0,0 l/m 0,0 km/h (0 Bft) SW 225 0 min 4,5 C 7,1 C 0,0 km/h (0 Bft)
16.12.2020 07:20 6,6 C 7,1 C 5,9 C 7,1 C 7,1 C 0,5 C 87 % 92 % 1020,9 hPa 0,0 l/m 0,0 km/h (0 Bft) SW 225 0 min 4,6 C 7,1 C 0,0 km/h (0 Bft)
16.12.2020 07:25 6,6 C 7,1 C 6,0 C 7,0 C 7,0 C 0,4 C 87 % 92 % 1020,9 hPa 0,0 l/m 0,0 km/h (0 Bft) SW 225 0 min 4,6 C 7,0 C 0,0 km/h (0 Bft)
16.12.2020 07:30 6,5 C 7,1 C 5,9 C 7,0 C 7,0 C 0,5 C 87 % 92 % 1021,2 hPa 0,0 l/m 0,0 km/h (0 Bft) SW 225 0 min 4,5 C 7,0 C 0,0 km/h (0 Bft)
16.12.2020 07:35 6,5 C 7,1 C 5,9 C 7,0 C 7,0 C 0,5 C 87 % 92 % 1021,2 hPa 0,0 l/m 0,0 km/h (0 Bft) SW 225 0 min 4,5 C 7,0 C 0,0 km/h (0 Bft)
16.12.2020 07:40 6,4 C 7,1 C 5,9 C 7,0 C 7,0 C 0,6 C 87 % 92 % 1021,2 hPa 0,0 l/m 0,0 km/h (0 Bft) SW 225 0 min 4,4 C 7,0 C 0,0 km/h (0 Bft)
16.12.2020 07:45 6,4 C 7,1 C 6,0 C 7,0 C 7,0 C 0,6 C 87 % 92 % 1021,2 hPa 0,0 l/m 0,0 km/h (0 Bft) SW 225 0 min 4,4 C 7,0 C 0,0 km/h (0 Bft)
16.12.2020 07:50 6,4 C 7,1 C 5,9 C 7,0 C 7,0 C 0,6 C 87 % 92 % 1021,4 hPa 0,0 l/m 0,0 km/h (0 Bft) SW 225 0 min 4,4 C 7,0 C 0,0 km/h (0 Bft)
16.12.2020 07:55 6,4 C 7,1 C 5,9 C 7,0 C 7,0 C 0,6 C 87 % 92 % 1021,4 hPa 0,0 l/m 0,0 km/h (0 Bft) SW 225 0 min 4,4 C 7,0 C 0,0 km/h (0 Bft)
16.12.2020 08:00 6,4 C 7,1 C 5,9 C 7,0 C 7,0 C 0,6 C 87 % 92 % 1021,4 hPa 0,0 l/m 0,0 km/h (0 Bft) SW 225 0 min 4,4 C 7,0 C 0,0 km/h (0 Bft)
16.12.2020 08:05 6,4 C 7,1 C 5,9 C 7,0 C 7,0 C 0,6 C 87 % 92 % 1021,4 hPa 0,0 l/m 0,0 km/h (0 Bft) SW 225 0 min 4,4 C 7,0 C 0,0 km/h (0 Bft)
16.12.2020 08:10 6,5 C 7,1 C 5,9 C 7,0 C 7,0 C 0,5 C 87 % 92 % 1021,8 hPa 0,0 l/m 0,0 km/h (0 Bft) SW 225 0 min 4,5 C 7,0 C 0,0 km/h (0 Bft)
16.12.2020 08:15 6,4 C 7,1 C 5,9 C 7,1 C 7,1 C 0,7 C 87 % 92 % 1021,8 hPa 0,0 l/m 0,0 km/h (0 Bft) SW 225 0 min 4,4 C 7,1 C 0,0 km/h (0 Bft)
16.12.2020 08:20 6,5 C 7,1 C 6,0 C 7,1 C 7,1 C 0,6 C 87 % 92 % 1021,8 hPa 0,0 l/m 0,0 km/h (0 Bft) SW 225 0 min 4,5 C 7,1 C 0,0 km/h (0 Bft)
16.12.2020 08:25 6,4 C 7,1 C 6,0 C 7,0 C 7,0 C 0,6 C 87 % 92 % 1021,8 hPa 0,0 l/m 0,0 km/h (0 Bft) SW 225 5 min 4,4 C 7,0 C 0,0 km/h (0 Bft)
16.12.2020 08:30 6,4 C 7,1 C 5,9 C 7,0 C 7,0 C 0,6 C 87 % 92 % 1021,5 hPa 0,0 l/m 0,0 km/h (0 Bft) SW 225 5 min 4,4 C 7,0 C 0,0 km/h (0 Bft)
16.12.2020 08:35 6,3 C 7,1 C 6,0 C 7,0 C 7,0 C 0,7 C 87 % 92 % 1021,5 hPa 0,0 l/m 0,0 km/h (0 Bft) SW 225 5 min 4,3 C 7,0 C 0,0 km/h (0 Bft)
16.12.2020 08:40 6,3 C 7,1 C 6,0 C 7,0 C 7,0 C 0,7 C 87 % 92 % 1021,5 hPa 0,0 l/m 0,0 km/h (0 Bft) SW 225 5 min 4,3 C 7,0 C 0,0 km/h (0 Bft)
16.12.2020 08:45 6,3 C 7,1 C 6,0 C 7,0 C 7,0 C 0,7 C 87 % 92 % 1021,5 hPa 0,0 l/m 0,0 km/h (0 Bft) SW 225 5 min 4,3 C 7,0 C 0,0 km/h (0 Bft)
16.12.2020 08:50 6,3 C 7,1 C 6,0 C 7,0 C 7,0 C 0,7 C 87 % 92 % 1021,7 hPa 0,0 l/m 0,0 km/h (0 Bft) SW 225 0 min 4,3 C 7,0 C 0,0 km/h (0 Bft)
16.12.2020 08:55 6,3 C 7,1 C 5,9 C 7,0 C 7,0 C 0,7 C 87 % 92 % 1021,7 hPa 0,0 l/m 0,0 km/h (0 Bft) SW 225 0 min 4,3 C 7,0 C 0,0 km/h (0 Bft)
16.12.2020 09:00 6,3 C 7,1 C 5,9 C 7,0 C 7,0 C 0,7 C 87 % 93 % 1021,7 hPa 0,0 l/m 0,0 km/h (0 Bft) SW 225 0 min 4,3 C 7,0 C 0,0 km/h (0 Bft)
16.12.2020 09:05 6,3 C 7,1 C 5,9 C 6,9 C 6,9 C 0,6 C 87 % 92 % 1021,7 hPa 0,0 l/m 0,0 km/h (0 Bft) SW 225 0 min 4,3 C 6,9 C 0,0 km/h (0 Bft)
16.12.2020 09:10 6,2 C 7,1 C 5,9 C 6,9 C 6,9 C 0,7 C 87 % 93 % 1022,1 hPa 0,0 l/m 0,0 km/h (0 Bft) SW 225 0 min 4,2 C 6,9 C 0,0 km/h (0 Bft)
16.12.2020 09:15 6,2 C 7,1 C 5,9 C 7,0 C 7,0 C 0,8 C 87 % 93 % 1022,1 hPa 0,0 l/m 0,0 km/h (0 Bft) SW 225 0 min 4,2 C 7,0 C 0,0 km/h (0 Bft)
16.12.2020 09:20 6,3 C 7,1 C 5,9 C 7,0 C 7,0 C 0,7 C 87 % 93 % 1022,1 hPa 0,0 l/m 0,0 km/h (0 Bft) SW 225 0 min 4,3 C 7,0 C 0,0 km/h (0 Bft)
16.12.2020 09:25 6,3 C 7,1 C 5,8 C 6,9 C 6,9 C 0,6 C 87 % 92 % 1022,1 hPa 0,0 l/m 0,0 km/h (0 Bft) SW 225 0 min 4,3 C 6,9 C 0,0 km/h (0 Bft)
16.12.2020 09:30 6,3 C 7,1 C 5,7 C 6,9 C 6,9 C 0,6 C 87 % 92 % 1021,4 hPa 0,0 l/m 0,0 km/h (0 Bft) SW 225 0 min 4,3 C 6,9 C 0,0 km/h (0 Bft)
16.12.2020 09:35 6,3 C 7,1 C 5,5 C 6,7 C 6,7 C 0,4 C 87 % 92 % 1021,4 hPa 0,0 l/m 0,0 km/h (0 Bft) SW 225 0 min 4,3 C 6,7 C 0,0 km/h (0 Bft)
16.12.2020 09:40 6,1 C 7,1 C 5,3 C 6,5 C 6,5 C 0,4 C 87 % 92 % 1021,4 hPa 0,0 l/m 0,0 km/h (0 Bft) SW 225 0 min 4,1 C 6,5 C 0,0 km/h (0 Bft)
16.12.2020 09:45 6,1 C 7,1 C 5,1 C 6,3 C 6,3 C 0,2 C 87 % 92 % 1021,4 hPa 0,0 l/m 0,0 km/h (0 Bft) SW 225 0 min 4,1 C 6,3 C 0,0 km/h (0 Bft)
16.12.2020 09:50 6,0 C 7,1 C 5,1 C 6,2 C 6,2 C 0,2 C 87 % 93 % 1021,1 hPa 0,0 l/m 0,0 km/h (0 Bft) SW 225 0 min 4,0 C 6,2 C 0,0 km/h (0 Bft)
16.12.2020 09:55 6,0 C 7,1 C 5,1 C 6,3 C 6,3 C 0,3 C 87 % 93 % 1021,1 hPa 0,0 l/m 1,1 km/h (1 Bft) NO 45 0 min 4,0 C 6,3 C 1,9 km/h (1 Bft)
16.12.2020 10:00 6,0 C 7,1 C 5,1 C 6,4 C 6,4 C 0,4 C 87 % 93 % 1021,1 hPa 0,0 l/m 1,1 km/h (1 Bft) NO 45 0 min 4,0 C 6,4 C 0,0 km/h (0 Bft)
16.12.2020 10:05 6,0 C 7,2 C 5,0 C 6,2 C 6,2 C 0,2 C 87 % 93 % 1021,1 hPa 0,0 l/m 0,3 km/h (0 Bft) NO 45 0 min 4,0 C 6,2 C 0,0 km/h (0 Bft)
16.12.2020 10:10 6,0 C 7,1 C 5,1 C 6,2 C 6,2 C 0,2 C 87 % 93 % 1021,3 hPa 0,0 l/m 0,3 km/h (0 Bft) NO 45 0 min 4,0 C 6,2 C 1,6 km/h (1 Bft)
16.12.2020 10:15 6,0 C 7,2 C 5,1 C 6,3 C 6,3 C 0,3 C 87 % 93 % 1021,3 hPa 0,0 l/m 0,2 km/h (0 Bft) NO 45 0 min 4,0 C 6,3 C 0,0 km/h (0 Bft)
16.12.2020 10:20 5,9 C 7,2 C 5,0 C 6,4 C 6,4 C 0,5 C 87 % 93 % 1021,3 hPa 0,0 l/m 0,2 km/h (0 Bft) NO 45 0 min 3,9 C 6,4 C 0,0 km/h (0 Bft)
16.12.2020 10:25 5,9 C 7,2 C 5,1 C 6,7 C 6,7 C 0,8 C 87 % 93 % 1021,3 hPa 0,0 l/m 0,0 km/h (0 Bft) NO 45 0 min 3,9 C 6,7 C 0,0 km/h (0 Bft)
16.12.2020 10:30 5,9 C 7,2 C 5,0 C 7,0 C 7,0 C 1,1 C 87 % 93 % 1021,3 hPa 0,0 l/m 0,0 km/h (0 Bft) NO 45 0 min 3,9 C 7,0 C 0,0 km/h (0 Bft)
16.12.2020 10:35 5,9 C 7,2 C 5,1 C 7,0 C 7,0 C 1,1 C 87 % 93 % 1021,3 hPa 0,0 l/m 0,0 km/h (0 Bft) NO 45 0 min 3,9 C 7,0 C 0,0 km/h (0 Bft)
16.12.2020 10:40 5,8 C 7,2 C 5,2 C 7,1 C 7,1 C 1,3 C 87 % 93 % 1021,3 hPa 0,0 l/m 0,2 km/h (0 Bft) NO 45 0 min 3,8 C 7,1 C 2,4 km/h (1 Bft)
16.12.2020 10:45 5,9 C 7,2 C 5,3 C 7,7 C 7,7 C 1,8 C 87 % 93 % 1021,3 hPa 0,0 l/m 0,5 km/h (0 Bft) O-NO 67 0 min 3,9 C 7,7 C 0,0 km/h (0 Bft)
16.12.2020 10:50 5,9 C 7,1 C 5,4 C 7,7 C 7,7 C 1,8 C 88 % 93 % 1021,6 hPa 0,0 l/m 0,5 km/h (0 Bft) NO 45 0 min 4,1 C 7,7 C 0,0 km/h (0 Bft)
16.12.2020 10:55 6,0 C 7,1 C 5,7 C 7,6 C 7,6 C 1,6 C 88 % 93 % 1021,6 hPa 0,0 l/m 0,0 km/h (0 Bft) NO 45 0 min 4,2 C 7,6 C 0,0 km/h (0 Bft)
16.12.2020 11:00 6,0 C 7,1 C 5,7 C 7,7 C 7,7 C 1,7 C 88 % 93 % 1021,6 hPa 0,0 l/m 0,0 km/h (0 Bft) O-NO 67 0 min 4,2 C 7,7 C 0,0 km/h (0 Bft)
16.12.2020 11:05 6,0 C 7,1 C 5,8 C 7,9 C 7,9 C 1,9 C 88 % 93 % 1021,6 hPa 0,0 l/m 0,0 km/h (0 Bft) NO 45 0 min 4,2 C 7,9 C 0,0 km/h (0 Bft)
16.12.2020 11:10 6,0 C 7,1 C 5,8 C 7,9 C 7,9 C 1,9 C 88 % 93 % 1021,8 hPa 0,0 l/m 0,0 km/h (0 Bft) NO 45 0 min 4,2 C 7,9 C 0,0 km/h (0 Bft)
16.12.2020 11:15 6,1 C 7,1 C 5,9 C 10,3 C 10,3 C 4,2 C 88 % 93 % 1021,8 hPa 0,0 l/m 0,0 km/h (0 Bft) O-NO 67 5 min 4,3 C 10,3 C 0,0 km/h (0 Bft)
16.12.2020 11:20 6,3 C 7,1 C 6,1 C 11,1 C 11,1 C 4,8 C 88 % 93 % 1021,8 hPa 0,0 l/m 0,0 km/h (0 Bft) NO 45 5 min 4,5 C 11,1 C 0,0 km/h (0 Bft)
16.12.2020 11:25 6,3 C 7,1 C 6,2 C 12,1 C 12,1 C 5,8 C 88 % 93 % 1021,8 hPa 0,0 l/m 0,0 km/h (0 Bft) O-NO 67 5 min 4,5 C 12,1 C 1,8 km/h (1 Bft)
16.12.2020 11:30 6,4 C 7,1 C 6,3 C 12,5 C 12,5 C 6,1 C 88 % 93 % 1021,4 hPa 0,0 l/m 0,2 km/h (0 Bft) S-SO 157 5 min 4,6 C 12,5 C 1,9 km/h (1 Bft)
16.12.2020 11:35 6,5 C 7,0 C 6,5 C 12,3 C 12,3 C 5,8 C 88 % 93 % 1021,4 hPa 0,0 l/m 0,6 km/h (0 Bft) O-NO 67 5 min 4,7 C 12,3 C 0,0 km/h (0 Bft)
16.12.2020 11:40 6,7 C 7,0 C 6,5 C 11,3 C 11,3 C 4,6 C 88 % 93 % 1021,4 hPa 0,0 l/m 0,5 km/h (0 Bft) NO 45 5 min 4,9 C 11,3 C 0,0 km/h (0 Bft)
16.12.2020 11:45 6,7 C 7,0 C 6,6 C 11,2 C 11,2 C 4,5 C 88 % 92 % 1021,4 hPa 0,0 l/m 0,0 km/h (0 Bft) NO 45 5 min 4,9 C 11,2 C 0,0 km/h (0 Bft)
16.12.2020 11:50 6,8 C 7,0 C 6,7 C 11,1 C 11,1 C 4,3 C 88 % 92 % 1021,2 hPa 0,0 l/m 0,0 km/h (0 Bft) O-NO 67 5 min 5,0 C 11,1 C 0,0 km/h (0 Bft)
16.12.2020 11:55 6,9 C 7,0 C 6,8 C 10,9 C 10,9 C 4,0 C 88 % 92 % 1021,2 hPa 0,0 l/m 0,8 km/h (0 Bft) N-NO 22 5 min 5,1 C 10,9 C 1,8 km/h (1 Bft)
16.12.2020 12:00 7,1 C 7,0 C 6,8 C 10,6 C 10,6 C 3,5 C 88 % 92 % 1021,2 hPa 0,0 l/m 1,4 km/h (1 Bft) NO 45 5 min 5,2 C 10,6 C 4,8 km/h (1 Bft)
16.12.2020 12:05 7,5 C 7,0 C 6,9 C 10,3 C 10,3 C 2,8 C 88 % 92 % 1021,2 hPa 0,0 l/m 2,3 km/h (1 Bft) NO 45 0 min 5,6 C 10,3 C 1,8 km/h (1 Bft)
16.12.2020 12:10 7,6 C 7,0 C 7,0 C 10,3 C 10,3 C 2,7 C 88 % 92 % 1021,3 hPa 0,0 l/m 2,3 km/h (1 Bft) O-NO 67 0 min 5,7 C 10,3 C 3,7 km/h (1 Bft)
16.12.2020 12:15 7,7 C 7,0 C 6,9 C 9,7 C 9,7 C 2,0 C 87 % 92 % 1021,3 hPa 0,0 l/m 1,6 km/h (1 Bft) N-NO 22 0 min 5,7 C 9,7 C 1,8 km/h (1 Bft)
16.12.2020 12:20 7,9 C 7,0 C 6,9 C 9,4 C 9,4 C 1,5 C 87 % 92 % 1021,3 hPa 0,0 l/m 1,0 km/h (0 Bft) N-NO 22 0 min 5,9 C 9,4 C 0,0 km/h (0 Bft)
16.12.2020 12:25 7,9 C 7,0 C 6,8 C 9,5 C 9,5 C 1,6 C 87 % 92 % 1021,3 hPa 0,0 l/m 0,3 km/h (0 Bft) N-NO 22 0 min 5,9 C 9,5 C 0,0 km/h (0 Bft)
16.12.2020 12:30 8,0 C 7,0 C 6,8 C 9,4 C 9,4 C 1,4 C 87 % 92 % 1021,3 hPa 0,0 l/m 1,0 km/h (0 Bft) NO 45 0 min 6,0 C 9,4 C 4,5 km/h (1 Bft)
16.12.2020 12:35 8,1 C 7,0 C 6,9 C 9,2 C 9,2 C 1,1 C 87 % 92 % 1021,3 hPa 0,0 l/m 2,6 km/h (1 Bft) NO 45 0 min 6,1 C 9,2 C 2,4 km/h (1 Bft)
16.12.2020 12:40 8,3 C 7,0 C 7,1 C 9,3 C 9,3 C 1,0 C 87 % 92 % 1021,3 hPa 0,0 l/m 2,4 km/h (1 Bft) O-NO 67 0 min 6,3 C 9,3 C 1,8 km/h (1 Bft)
16.12.2020 12:45 8,3 C 6,9 C 7,4 C 9,8 C 9,8 C 1,5 C 87 % 92 % 1021,3 hPa 0,0 l/m 0,5 km/h (0 Bft) O-NO 67 0 min 6,3 C 9,8 C 0,0 km/h (0 Bft)
16.12.2020 12:50 8,4 C 6,9 C 7,5 C 9,9 C 9,9 C 1,5 C 87 % 92 % 1021,1 hPa 0,0 l/m 0,6 km/h (0 Bft) O-NO 67 0 min 6,4 C 9,9 C 2,9 km/h (1 Bft)
16.12.2020 12:55 8,5 C 6,9 C 7,5 C 10,2 C 10,2 C 1,7 C 87 % 92 % 1021,1 hPa 0,0 l/m 1,6 km/h (1 Bft) NO 45 0 min 6,5 C 10,2 C 2,1 km/h (1 Bft)
16.12.2020 13:00 8,6 C 6,9 C 7,5 C 10,5 C 10,5 C 1,9 C 87 % 92 % 1021,1 hPa 0,0 l/m 2,3 km/h (1 Bft) O-NO 67 0 min 6,6 C 10,5 C 2,4 km/h (1 Bft)
16.12.2020 13:05 8,7 C 6,9 C 7,7 C 10,5 C 10,5 C 1,8 C 86 % 91 % 1021,1 hPa 0,0 l/m 3,4 km/h (1 Bft) NO 45 0 min 6,5 C 10,5 C 5,5 km/h (1 Bft)
16.12.2020 13:10 8,9 C 6,9 C 7,8 C 10,5 C 10,5 C 1,6 C 86 % 91 % 1020,8 hPa 0,0 l/m 4,3 km/h (1 Bft) O-NO 67 0 min 6,7 C 10,5 C 5,8 km/h (2 Bft)
16.12.2020 13:15 8,9 C 6,9 C 7,8 C 10,4 C 10,4 C 1,5 C 86 % 91 % 1020,8 hPa 0,0 l/m 4,2 km/h (1 Bft) O-NO 67 0 min 6,7 C 10,4 C 2,1 km/h (1 Bft)
16.12.2020 13:20 8,9 C 6,9 C 7,8 C 10,4 C 10,4 C 1,5 C 86 % 91 % 1020,8 hPa 0,0 l/m 3,5 km/h (1 Bft) NO 45 0 min 6,7 C 10,4 C 4,8 km/h (1 Bft)
16.12.2020 13:25 9,1 C 6,9 C 7,9 C 10,5 C 10,5 C 1,4 C 85 % 91 % 1020,8 hPa 0,0 l/m 3,9 km/h (1 Bft) O-NO 67 0 min 6,7 C 10,5 C 4,5 km/h (1 Bft)
16.12.2020 13:30 9,2 C 6,8 C 7,9 C 10,6 C 10,6 C 1,4 C 85 % 91 % 1021,5 hPa 0,0 l/m 3,9 km/h (1 Bft) NO 45 0 min 6,8 C 10,6 C 4,7 km/h (1 Bft)
16.12.2020 13:35 9,2 C 6,8 C 8,1 C 10,9 C 10,9 C 1,7 C 85 % 90 % 1021,5 hPa 0,0 l/m 4,3 km/h (1 Bft) NO 45 0 min 6,8 C 10,9 C 5,5 km/h (1 Bft)
16.12.2020 13:40 9,4 C 6,8 C 8,3 C 10,8 C 10,8 C 1,4 C 85 % 90 % 1021,5 hPa 0,0 l/m 4,8 km/h (1 Bft) O-NO 67 0 min 7,0 C 10,8 C 5,1 km/h (1 Bft)
16.12.2020 13:45 9,5 C 6,9 C 8,3 C 11,0 C 11,0 C 1,5 C 84 % 89 % 1021,5 hPa 0,0 l/m 4,3 km/h (1 Bft) O-NO 67 0 min 6,9 C 11,0 C 3,7 km/h (1 Bft)
16.12.2020 13:50 9,4 C 6,9 C 8,3 C 10,9 C 10,9 C 1,5 C 83 % 89 % 1021,6 hPa 0,0 l/m 4,7 km/h (1 Bft) O-NO 67 0 min 6,7 C 10,9 C 6,0 km/h (2 Bft)
16.12.2020 13:55 9,4 C 6,9 C 8,3 C 10,7 C 10,7 C 1,3 C 82 % 88 % 1021,6 hPa 0,0 l/m 6,0 km/h (2 Bft) NO 45 0 min 6,5 C 10,7 C 7,4 km/h (2 Bft)
16.12.2020 14:00 9,2 C 6,9 C 8,2 C 10,5 C 10,5 C 1,3 C 82 % 88 % 1021,6 hPa 0,0 l/m 6,9 km/h (2 Bft) O-NO 67 0 min 6,3 C 10,5 C 10,0 km/h (2 Bft)
16.12.2020 14:05 9,2 C 6,9 C 8,1 C 10,3 C 9,7 C 1,1 C 81 % 88 % 1021,6 hPa 0,0 l/m 7,9 km/h (2 Bft) NO 45 0 min 6,1 C 8,7 C 8,9 km/h (2 Bft)
16.12.2020 14:10 9,1 C 6,9 C 8,0 C 9,7 C 9,3 C 0,6 C 81 % 87 % 1021,0 hPa 0,0 l/m 7,9 km/h (2 Bft) NO 45 0 min 6,0 C 8,2 C 6,4 km/h (2 Bft)
16.12.2020 14:15 9,1 C 7,0 C 7,9 C 9,1 C 9,1 C 0,0 C 81 % 87 % 1021,0 hPa 0,0 l/m 6,3 km/h (2 Bft) NO 45 0 min 6,0 C 8,4 C 3,5 km/h (1 Bft)
16.12.2020 14:20 8,9 C 7,0 C 7,8 C 9,2 C 9,2 C 0,3 C 81 % 87 % 1021,0 hPa 0,0 l/m 5,5 km/h (1 Bft) O-NO 67 0 min 5,8 C 8,7 C 9,0 km/h (2 Bft)
16.12.2020 14:25 8,8 C 7,0 C 7,7 C 9,2 C 9,2 C 0,4 C 81 % 87 % 1021,0 hPa 0,0 l/m 5,5 km/h (1 Bft) O 90 0 min 5,7 C 8,7 C 4,2 km/h (1 Bft)
16.12.2020 14:30 8,8 C 7,0 C 7,7 C 8,9 C 8,9 C 0,1 C 81 % 87 % 1021,2 hPa 0,0 l/m 5,3 km/h (1 Bft) O-NO 67 0 min 5,7 C 8,4 C 4,2 km/h (1 Bft)
16.12.2020 14:35 8,8 C 6,9 C 7,7 C 9,8 C 9,8 C 1,0 C 81 % 87 % 1021,2 hPa 0,0 l/m 3,9 km/h (1 Bft) NO 45 0 min 5,7 C 9,8 C 1,9 km/h (1 Bft)
16.12.2020 14:40 8,8 C 6,9 C 7,7 C 10,2 C 10,2 C 1,4 C 81 % 87 % 1021,2 hPa 0,0 l/m 3,1 km/h (1 Bft) NO 45 0 min 5,7 C 10,2 C 3,5 km/h (1 Bft)
16.12.2020 14:45 8,8 C 7,0 C 7,7 C 10,4 C 10,4 C 1,6 C 81 % 87 % 1021,2 hPa 0,0 l/m 2,7 km/h (1 Bft) NO 45 0 min 5,7 C 10,4 C 3,5 km/h (1 Bft)
16.12.2020 14:50 8,8 C 7,0 C 7,7 C 10,6 C 10,6 C 1,8 C 81 % 87 % 1021,0 hPa 0,0 l/m 2,7 km/h (1 Bft) O-NO 67 0 min 5,7 C 10,6 C 1,8 km/h (1 Bft)
16.12.2020 14:55 8,9 C 7,0 C 7,7 C 10,3 C 10,3 C 1,4 C 81 % 87 % 1021,0 hPa 0,0 l/m 2,9 km/h (1 Bft) NO 45 0 min 5,8 C 10,3 C 2,6 km/h (1 Bft)
16.12.2020 15:00 8,9 C 7,0 C 7,5 C 9,9 C 9,9 C 1,0 C 81 % 87 % 1021,0 hPa 0,0 l/m 2,9 km/h (1 Bft) N-NO 22 0 min 5,8 C 9,9 C 2,4 km/h (1 Bft)
16.12.2020 15:05 8,8 C 7,1 C 7,3 C 9,2 C 9,2 C 0,4 C 81 % 87 % 1021,0 hPa 0,0 l/m 1,6 km/h (1 Bft) N-NO 22 0 min 5,7 C 9,2 C 1,9 km/h (1 Bft)
16.12.2020 15:10 8,6 C 7,1 C 7,2 C 8,8 C 8,8 C 0,2 C 81 % 87 % 1021,8 hPa 0,0 l/m 0,6 km/h (0 Bft) N-NO 22 0 min 5,5 C 8,8 C 0,0 km/h (0 Bft)
16.12.2020 15:15 8,5 C 7,1 C 7,1 C 8,5 C 8,4 C 0,0 C 81 % 88 % 1021,8 hPa 0,0 l/m 1,0 km/h (0 Bft) NO 45 0 min 5,4 C 8,4 C 2,9 km/h (1 Bft)
16.12.2020 15:20 8,4 C 7,1 C 7,2 C 8,3 C 8,2 C 0,0 C 81 % 88 % 1021,8 hPa 0,0 l/m 1,6 km/h (1 Bft) NO 45 0 min 5,3 C 8,2 C 3,1 km/h (1 Bft)
16.12.2020 15:25 8,4 C 7,1 C 7,1 C 8,3 C 8,2 C 0,0 C 82 % 88 % 1021,8 hPa 0,0 l/m 2,1 km/h (1 Bft) NO 45 0 min 5,5 C 8,2 C 1,6 km/h (1 Bft)
16.12.2020 15:30 8,3 C 7,1 C 7,1 C 8,2 C 8,1 C 0,0 C 82 % 88 % 1021,8 hPa 0,0 l/m 1,9 km/h (1 Bft) NO 45 0 min 5,4 C 8,1 C 2,1 km/h (1 Bft)
16.12.2020 15:35 8,3 C 7,1 C 6,9 C 8,1 C 7,8 C 0,0 C 82 % 88 % 1021,8 hPa 0,0 l/m 2,3 km/h (1 Bft) NO 45 0 min 5,4 C 7,8 C 3,1 km/h (1 Bft)
16.12.2020 15:40 8,1 C 7,1 C 7,0 C 8,0 C 7,7 C 0,0 C 82 % 88 % 1021,8 hPa 0,0 l/m 2,6 km/h (1 Bft) NO 45 0 min 5,2 C 7,7 C 4,2 km/h (1 Bft)
16.12.2020 15:45 8,0 C 7,1 C 6,9 C 7,8 C 7,5 C 0,0 C 82 % 87 % 1021,8 hPa 0,0 l/m 3,1 km/h (1 Bft) NO 45 0 min 5,1 C 7,5 C 3,4 km/h (1 Bft)
16.12.2020 15:50 7,9 C 7,1 C 6,7 C 7,7 C 7,4 C 0,0 C 82 % 87 % 1021,2 hPa 0,0 l/m 3,1 km/h (1 Bft) NO 45 0 min 5,0 C 7,4 C 4,0 km/h (1 Bft)
16.12.2020 15:55 7,6 C 7,2 C 6,6 C 7,5 C 7,2 C 0,0 C 82 % 87 % 1021,2 hPa 0,0 l/m 3,5 km/h (1 Bft) O 90 0 min 4,7 C 7,2 C 6,4 km/h (2 Bft)
16.12.2020 16:00 7,6 C 7,2 C 6,4 C 7,3 C 6,8 C 0,0 C 82 % 87 % 1021,2 hPa 0,0 l/m 3,9 km/h (1 Bft) NO 45 0 min 4,7 C 6,8 C 3,5 km/h (1 Bft)
16.12.2020 16:05 7,3 C 7,2 C 6,2 C 7,1 C 6,6 C 0,0 C 82 % 87 % 1021,2 hPa 0,0 l/m 3,9 km/h (1 Bft) NO 45 0 min 4,4 C 6,6 C 4,3 km/h (1 Bft)
16.12.2020 16:10 7,2 C 7,2 C 6,1 C 7,0 C 6,5 C 0,0 C 82 % 87 % 1021,4 hPa 0,0 l/m 3,9 km/h (1 Bft) NO 45 0 min 4,3 C 6,5 C 3,2 km/h (1 Bft)
16.12.2020 16:15 7,2 C 7,2 C 6,0 C 6,9 C 6,4 C 0,0 C 82 % 87 % 1021,4 hPa 0,0 l/m 4,0 km/h (1 Bft) O-NO 67 0 min 4,3 C 6,4 C 5,8 km/h (2 Bft)
16.12.2020 16:20 7,1 C 7,2 C 6,1 C 6,9 C 6,4 C 0,0 C 82 % 87 % 1021,4 hPa 0,0 l/m 3,9 km/h (1 Bft) NO 45 0 min 4,2 C 6,4 C 3,9 km/h (1 Bft)
16.12.2020 16:25 7,1 C 7,2 C 6,0 C 6,8 C 6,1 C 0,0 C 82 % 87 % 1021,4 hPa 0,0 l/m 3,9 km/h (1 Bft) NO 45 0 min 4,2 C 6,1 C 5,0 km/h (1 Bft)
16.12.2020 16:30 6,9 C 7,2 C 5,8 C 6,6 C 6,1 C 0,0 C 82 % 87 % 1021,4 hPa 0,0 l/m 3,9 km/h (1 Bft) NO 45 0 min 4,0 C 6,1 C 3,7 km/h (1 Bft)
16.12.2020 16:35 6,7 C 7,2 C 5,5 C 6,5 C 6,1 C 0,0 C 82 % 88 % 1021,4 hPa 0,0 l/m 3,5 km/h (1 Bft) O-NO 67 0 min 3,8 C 6,1 C 3,7 km/h (1 Bft)
16.12.2020 16:40 6,7 C 7,2 C 5,5 C 6,5 C 6,1 C 0,0 C 82 % 88 % 1021,4 hPa 0,0 l/m 3,2 km/h (1 Bft) O-NO 67 0 min 3,8 C 6,1 C 3,4 km/h (1 Bft)
16.12.2020 16:45 6,5 C 7,2 C 5,4 C 6,3 C 5,8 C 0,0 C 82 % 88 % 1021,4 hPa 0,0 l/m 3,5 km/h (1 Bft) O-NO 67 0 min 3,7 C 5,8 C 4,5 km/h (1 Bft)
16.12.2020 16:50 6,4 C 7,2 C 5,3 C 6,2 C 5,7 C 0,0 C 83 % 88 % 1021,6 hPa 0,0 l/m 3,9 km/h (1 Bft) N-NO 22 0 min 3,7 C 5,7 C 4,2 km/h (1 Bft)
16.12.2020 16:55 6,3 C 7,2 C 5,1 C 6,1 C 5,8 C 0,0 C 83 % 89 % 1021,6 hPa 0,0 l/m 3,1 km/h (1 Bft) O-NO 67 0 min 3,6 C 5,8 C 2,4 km/h (1 Bft)
16.12.2020 17:00 6,3 C 7,2 C 5,1 C 6,1 C 5,7 C 0,0 C 83 % 89 % 1021,6 hPa 0,0 l/m 2,1 km/h (1 Bft) NO 45 0 min 3,6 C 5,7 C 0,0 km/h (0 Bft)
16.12.2020 17:05 6,1 C 7,2 C 4,9 C 5,9 C 5,5 C 0,0 C 83 % 89 % 1021,6 hPa 0,0 l/m 1,1 km/h (1 Bft) N-NO 22 0 min 3,4 C 5,5 C 0,0 km/h (0 Bft)
16.12.2020 17:10 6,1 C 7,2 C 4,6 C 5,8 C 5,2 C 0,0 C 83 % 88 % 1021,9 hPa 0,0 l/m 0,3 km/h (0 Bft) O-NO 67 0 min 3,4 C 5,2 C 0,0 km/h (0 Bft)
16.12.2020 17:15 5,9 C 7,2 C 4,4 C 5,7 C 5,2 C 0,0 C 83 % 88 % 1021,9 hPa 0,0 l/m 1,0 km/h (0 Bft) NO 45 0 min 3,2 C 5,2 C 2,9 km/h (1 Bft)
16.12.2020 17:20 5,7 C 7,3 C 4,3 C 5,5 C 5,0 C 0,0 C 83 % 89 % 1021,9 hPa 0,0 l/m 1,3 km/h (1 Bft) NO 45 0 min 3,0 C 5,0 C 1,8 km/h (1 Bft)
16.12.2020 17:25 5,5 C 7,3 C 4,1 C 5,3 C 4,8 C 0,0 C 83 % 89 % 1021,9 hPa 0,0 l/m 2,1 km/h (1 Bft) NO 45 0 min 2,8 C 4,8 C 4,5 km/h (1 Bft)
16.12.2020 17:30 5,5 C 7,3 C 4,0 C 5,3 C 4,8 C 0,0 C 84 % 89 % 1022,3 hPa 0,0 l/m 1,8 km/h (1 Bft) NO 45 0 min 3,0 C 4,8 C 0,0 km/h (0 Bft)
16.12.2020 17:35 5,3 C 7,3 C 3,9 C 5,0 C 4,4 C 0,0 C 84 % 89 % 1022,3 hPa 0,0 l/m 0,8 km/h (0 Bft) NO 45 0 min 2,8 C 4,4 C 0,0 km/h (0 Bft)
16.12.2020 17:40 5,2 C 7,3 C 3,7 C 4,9 C 4,2 C 0,0 C 84 % 90 % 1022,3 hPa 0,0 l/m 0,0 km/h (0 Bft) NO 45 0 min 2,7 C 4,2 C 0,0 km/h (0 Bft)
16.12.2020 17:45 5,0 C 7,3 C 3,4 C 4,6 C 3,7 C 0,0 C 84 % 90 % 1022,3 hPa 0,0 l/m 0,0 km/h (0 Bft) NO 45 0 min 2,5 C 3,7 C 0,0 km/h (0 Bft)
16.12.2020 17:50 4,8 C 7,3 C 3,2 C 4,4 C 3,5 C 0,0 C 83 % 89 % 1022,1 hPa 0,0 l/m 0,0 km/h (0 Bft) NO 45 0 min 2,2 C 3,5 C 0,0 km/h (0 Bft)
16.12.2020 17:55 4,6 C 7,3 C 2,9 C 4,1 C 3,2 C 0,0 C 84 % 89 % 1022,1 hPa 0,0 l/m 0,0 km/h (0 Bft) NO 45 0 min 2,1 C 3,2 C 0,0 km/h (0 Bft)
16.12.2020 18:00 4,5 C 7,3 C 2,9 C 4,0 C 3,1 C 0,0 C 84 % 90 % 1022,1 hPa 0,0 l/m 0,0 km/h (0 Bft) NO 45 0 min 2,0 C 3,1 C 0,0 km/h (0 Bft)
16.12.2020 18:05 4,3 C 7,3 C 2,8 C 3,8 C 2,9 C 0,0 C 84 % 90 % 1022,1 hPa 0,0 l/m 0,0 km/h (0 Bft) NO 45 0 min 1,8 C 2,9 C 0,0 km/h (0 Bft)
16.12.2020 18:10 4,3 C 7,3 C 2,7 C 3,8 C 2,8 C 0,0 C 84 % 90 % 1022,1 hPa 0,0 l/m 0,0 km/h (0 Bft) O-NO 67 0 min 1,8 C 2,8 C 0,0 km/h (0 Bft)
16.12.2020 18:15 4,0 C 7,3 C 2,4 C 3,5 C 2,6 C 0,0 C 84 % 90 % 1022,1 hPa 0,0 l/m 0,0 km/h (0 Bft) NO 45 0 min 1,5 C 2,6 C 0,0 km/h (0 Bft)
16.12.2020 18:20 3,9 C 7,4 C 2,4 C 3,4 C 2,5 C 0,0 C 84 % 91 % 1022,1 hPa 0,0 l/m 0,0 km/h (0 Bft) O-NO 67 0 min 1,4 C 2,5 C 0,0 km/h (0 Bft)
16.12.2020 18:25 3,9 C 7,4 C 2,2 C 3,4 C 2,5 C 0,0 C 84 % 91 % 1022,1 hPa 0,0 l/m 0,0 km/h (0 Bft) O-NO 67 0 min 1,4 C 2,5 C 0,0 km/h (0 Bft)
16.12.2020 18:30 3,7 C 7,4 C 2,1 C 3,3 C 2,5 C 0,0 C 85 % 91 % 1022,3 hPa 0,0 l/m 0,0 km/h (0 Bft) NO 45 0 min 1,4 C 2,5 C 0,0 km/h (0 Bft)
16.12.2020 18:35 3,6 C 7,4 C 2,0 C 3,2 C 2,5 C 0,0 C 85 % 91 % 1022,3 hPa 0,0 l/m 0,0 km/h (0 Bft) O-SO 112 0 min 1,3 C 2,5 C 0,0 km/h (0 Bft)
16.12.2020 18:40 3,7 C 7,4 C 2,0 C 3,3 C 2,4 C 0,0 C 85 % 91 % 1022,3 hPa 0,0 l/m 0,0 km/h (0 Bft) O-SO 112 0 min 1,4 C 2,4 C 0,0 km/h (0 Bft)
16.12.2020 18:45 3,5 C 7,4 C 2,1 C 3,2 C 2,5 C 0,0 C 85 % 91 % 1022,3 hPa 0,0 l/m 0,0 km/h (0 Bft) O-SO 112 0 min 1,2 C 2,5 C 0,0 km/h (0 Bft)
16.12.2020 18:50 3,5 C 7,4 C 2,3 C 3,2 C 2,6 C 0,0 C 85 % 92 % 1022,4 hPa 0,0 l/m 0,0 km/h (0 Bft) O-SO 112 0 min 1,2 C 2,6 C 0,0 km/h (0 Bft)
16.12.2020 18:55 3,5 C 7,4 C 2,5 C 3,3 C 3,0 C 0,0 C 86 % 92 % 1022,4 hPa 0,0 l/m 0,0 km/h (0 Bft) O-SO 112 0 min 1,4 C 3,0 C 0,0 km/h (0 Bft)
16.12.2020 19:00 3,5 C 7,4 C 2,7 C 3,4 C 3,1 C 0,0 C 86 % 92 % 1022,4 hPa 0,0 l/m 0,0 km/h (0 Bft) O-SO 112 0 min 1,4 C 3,1 C 0,0 km/h (0 Bft)
16.12.2020 19:05 3,6 C 7,4 C 3,0 C 3,5 C 3,4 C 0,0 C 86 % 92 % 1022,4 hPa 0,0 l/m 0,0 km/h (0 Bft) SW 225 0 min 1,5 C 3,4 C 1,6 km/h (1 Bft)
16.12.2020 19:10 3,6 C 7,4 C 3,1 C 3,6 C 3,6 C 0,0 C 87 % 92 % 1022,5 hPa 0,0 l/m 0,5 km/h (0 Bft) W-SW 247 0 min 1,6 C 3,6 C 2,1 km/h (1 Bft)
16.12.2020 19:15 3,8 C 7,2 C 3,2 C 3,8 C 3,8 C 0,0 C 87 % 92 % 1022,5 hPa 0,0 l/m 0,6 km/h (0 Bft) S 180 0 min 1,8 C 3,8 C 2,1 km/h (1 Bft)
16.12.2020 19:20 3,8 C 7,2 C 3,4 C 4,0 C 4,0 C 0,2 C 87 % 92 % 1022,5 hPa 0,0 l/m 0,3 km/h (0 Bft) S 180 0 min 1,8 C 4,0 C 0,0 km/h (0 Bft)
16.12.2020 19:25 4,0 C 7,2 C 3,8 C 4,5 C 4,5 C 0,5 C 87 % 92 % 1022,5 hPa 0,0 l/m 0,3 km/h (0 Bft) O-NO 67 0 min 2,0 C 4,5 C 1,9 km/h (1 Bft)
16.12.2020 19:30 4,0 C 7,2 C 4,0 C 5,0 C 5,0 C 1,0 C 88 % 92 % 1022,2 hPa 0,0 l/m 0,2 km/h (0 Bft) O-NO 67 0 min 2,2 C 5,0 C 0,0 km/h (0 Bft)
16.12.2020 19:35 4,3 C 7,1 C 4,3 C 5,3 C 5,3 C 1,0 C 88 % 92 % 1022,2 hPa 0,0 l/m 0,6 km/h (0 Bft) S 180 0 min 2,5 C 5,3 C 2,1 km/h (1 Bft)
16.12.2020 19:40 4,5 C 7,1 C 4,4 C 5,4 C 5,4 C 0,9 C 88 % 92 % 1022,2 hPa 0,0 l/m 1,1 km/h (1 Bft) SW 225 0 min 2,7 C 5,4 C 0,0 km/h (0 Bft)
16.12.2020 19:45 4,5 C 7,1 C 4,4 C 5,6 C 5,6 C 1,1 C 88 % 92 % 1022,2 hPa 0,0 l/m 0,8 km/h (0 Bft) SW 225 0 min 2,7 C 5,6 C 1,6 km/h (1 Bft)
16.12.2020 19:50 4,7 C 7,1 C 4,6 C 5,7 C 5,7 C 1,0 C 87 % 92 % 1023,1 hPa 0,0 l/m 0,2 km/h (0 Bft) SW 225 0 min 2,7 C 5,7 C 0,0 km/h (0 Bft)
16.12.2020 19:55 4,7 C 7,1 C 4,7 C 5,8 C 5,8 C 1,1 C 87 % 92 % 1023,1 hPa 0,0 l/m 0,0 km/h (0 Bft) SW 225 0 min 2,7 C 5,8 C 0,0 km/h (0 Bft)
16.12.2020 20:00 4,8 C 7,1 C 4,8 C 5,9 C 5,9 C 1,1 C 87 % 91 % 1023,1 hPa 0,0 l/m 0,0 km/h (0 Bft) SW 225 0 min 2,8 C 5,9 C 1,8 km/h (1 Bft)
16.12.2020 20:05 4,8 C 7,1 C 4,9 C 6,0 C 6,0 C 1,2 C 87 % 91 % 1023,1 hPa 0,0 l/m 0,0 km/h (0 Bft) S-SW 202 0 min 2,8 C 6,0 C 0,0 km/h (0 Bft)
16.12.2020 20:10 5,0 C 7,1 C 4,9 C 6,0 C 6,0 C 1,0 C 87 % 91 % 1022,9 hPa 0,0 l/m 0,2 km/h (0 Bft) S-SW 202 0 min 3,0 C 6,0 C 0,0 km/h (0 Bft)
16.12.2020 20:15 5,1 C 7,0 C 5,0 C 6,1 C 6,1 C 1,0 C 87 % 91 % 1022,9 hPa 0,0 l/m 0,0 km/h (0 Bft) S-SW 202 0 min 3,1 C 6,1 C 0,0 km/h (0 Bft)
16.12.2020 20:20 5,2 C 7,0 C 5,0 C 6,1 C 6,1 C 0,9 C 87 % 91 % 1022,9 hPa 0,0 l/m 0,0 km/h (0 Bft) SW 225 0 min 3,2 C 6,1 C 0,0 km/h (0 Bft)
16.12.2020 20:25 5,2 C 7,0 C 5,1 C 6,1 C 6,1 C 0,9 C 87 % 91 % 1022,9 hPa 0,0 l/m 0,0 km/h (0 Bft) S-SW 202 0 min 3,2 C 6,1 C 1,8 km/h (1 Bft)
16.12.2020 20:30 5,3 C 7,0 C 5,1 C 6,2 C 6,2 C 0,9 C 87 % 91 % 1022,7 hPa 0,0 l/m 0,2 km/h (0 Bft) S-SW 202 0 min 3,3 C 6,2 C 0,0 km/h (0 Bft)
16.12.2020 20:35 5,5 C 7,1 C 5,1 C 6,2 C 6,2 C 0,7 C 87 % 91 % 1022,7 hPa 0,0 l/m 0,2 km/h (0 Bft) S-SW 202 0 min 3,5 C 6,2 C 0,0 km/h (0 Bft)
16.12.2020 20:40 5,4 C 7,1 C 5,1 C 6,1 C 6,1 C 0,7 C 87 % 91 % 1022,7 hPa 0,0 l/m 0,0 km/h (0 Bft) S-SW 202 0 min 3,4 C 6,1 C 0,0 km/h (0 Bft)
16.12.2020 20:45 5,5 C 7,0 C 5,2 C 6,2 C 6,2 C 0,7 C 87 % 91 % 1022,7 hPa 0,0 l/m 0,0 km/h (0 Bft) S-SW 202 0 min 3,5 C 6,2 C 0,0 km/h (0 Bft)
16.12.2020 20:50 5,6 C 7,0 C 5,3 C 6,2 C 6,2 C 0,6 C 87 % 90 % 1022,7 hPa 0,0 l/m 0,2 km/h (0 Bft) O-SO 112 0 min 3,6 C 6,2 C 1,8 km/h (1 Bft)
16.12.2020 20:55 5,7 C 7,0 C 5,3 C 6,2 C 6,2 C 0,5 C 87 % 90 % 1022,7 hPa 0,0 l/m 0,3 km/h (0 Bft) S-SO 157 0 min 3,7 C 6,2 C 0,0 km/h (0 Bft)
16.12.2020 21:00 5,7 C 7,0 C 5,4 C 6,2 C 6,2 C 0,5 C 87 % 90 % 1022,7 hPa 0,0 l/m 0,3 km/h (0 Bft) O-NO 67 0 min 3,7 C 6,2 C 1,9 km/h (1 Bft)
16.12.2020 21:05 5,9 C 7,0 C 5,4 C 6,3 C 6,3 C 0,4 C 87 % 90 % 1022,7 hPa 0,0 l/m 0,3 km/h (0 Bft) O-NO 67 0 min 3,9 C 6,3 C 0,0 km/h (0 Bft)
16.12.2020 21:10 5,9 C 7,0 C 5,4 C 6,3 C 6,3 C 0,4 C 87 % 90 % 1022,7 hPa 0,0 l/m 0,3 km/h (0 Bft) N-NO 22 0 min 3,9 C 6,3 C 0,0 km/h (0 Bft)
16.12.2020 21:15 5,9 C 7,0 C 5,4 C 6,3 C 6,3 C 0,4 C 86 % 89 % 1022,7 hPa 0,0 l/m 0,0 km/h (0 Bft) S-SO 157 0 min 3,7 C 6,3 C 0,0 km/h (0 Bft)
16.12.2020 21:20 5,9 C 7,0 C 5,4 C 6,3 C 6,3 C 0,4 C 86 % 89 % 1022,7 hPa 0,0 l/m 0,0 km/h (0 Bft) O 90 0 min 3,7 C 6,3 C 0,0 km/h (0 Bft)
16.12.2020 21:25 5,9 C 7,0 C 5,4 C 6,3 C 6,3 C 0,4 C 86 % 89 % 1022,7 hPa 0,0 l/m 0,0 km/h (0 Bft) O-NO 67 0 min 3,7 C 6,3 C 0,0 km/h (0 Bft)
16.12.2020 21:30 6,0 C 7,0 C 5,4 C 6,3 C 6,3 C 0,3 C 86 % 89 % 1022,6 hPa 0,0 l/m 0,0 km/h (0 Bft) O-NO 67 0 min 3,8 C 6,3 C 0,0 km/h (0 Bft)
16.12.2020 21:35 6,0 C 7,0 C 5,5 C 6,3 C 6,3 C 0,3 C 86 % 89 % 1022,6 hPa 0,0 l/m 0,0 km/h (0 Bft) O-NO 67 0 min 3,8 C 6,3 C 0,0 km/h (0 Bft)
16.12.2020 21:40 6,0 C 7,0 C 5,5 C 6,3 C 6,3 C 0,3 C 86 % 89 % 1022,6 hPa 0,0 l/m 0,0 km/h (0 Bft) S-SO 157 0 min 3,8 C 6,3 C 0,0 km/h (0 Bft)
16.12.2020 21:45 6,0 C 7,0 C 5,5 C 6,3 C 6,3 C 0,3 C 86 % 89 % 1022,6 hPa 0,0 l/m 0,0 km/h (0 Bft) O 90 0 min 3,8 C 6,3 C 0,0 km/h (0 Bft)
16.12.2020 21:50 6,0 C 7,0 C 5,5 C 6,3 C 6,3 C 0,3 C 86 % 89 % 1022,6 hPa 0,0 l/m 0,0 km/h (0 Bft) O-SO 112 0 min 3,8 C 6,3 C 0,0 km/h (0 Bft)
16.12.2020 21:55 6,1 C 7,0 C 5,5 C 6,3 C 6,3 C 0,2 C 85 % 89 % 1022,6 hPa 0,0 l/m 0,0 km/h (0 Bft) O-NO 67 0 min 3,8 C 6,3 C 0,0 km/h (0 Bft)
16.12.2020 22:00 6,1 C 7,0 C 5,5 C 6,2 C 6,2 C 0,1 C 85 % 89 % 1022,6 hPa 0,0 l/m 0,2 km/h (0 Bft) O-NO 67 0 min 3,8 C 6,2 C 0,0 km/h (0 Bft)
16.12.2020 22:05 6,1 C 7,0 C 5,4 C 6,2 C 6,2 C 0,1 C 85 % 89 % 1022,6 hPa 0,0 l/m 0,2 km/h (0 Bft) O-NO 67 0 min 3,8 C 6,2 C 0,0 km/h (0 Bft)
16.12.2020 22:10 6,0 C 7,0 C 5,4 C 6,2 C 6,2 C 0,2 C 85 % 89 % 1022,6 hPa 0,0 l/m 0,2 km/h (0 Bft) O-NO 67 0 min 3,7 C 6,2 C 0,0 km/h (0 Bft)
16.12.2020 22:15 6,0 C 7,0 C 5,3 C 6,2 C 6,2 C 0,2 C 85 % 89 % 1022,6 hPa 0,0 l/m 0,2 km/h (0 Bft) O-NO 67 0 min 3,7 C 6,2 C 1,8 km/h (1 Bft)
16.12.2020 22:20 6,0 C 7,0 C 5,3 C 6,2 C 6,2 C 0,2 C 85 % 89 % 1022,6 hPa 0,0 l/m 0,2 km/h (0 Bft) O-NO 67 0 min 3,7 C 6,2 C 0,0 km/h (0 Bft)
16.12.2020 22:25 6,0 C 7,0 C 5,3 C 6,2 C 6,2 C 0,2 C 85 % 89 % 1022,6 hPa 0,0 l/m 0,2 km/h (0 Bft) NO 45 0 min 3,7 C 6,2 C 0,0 km/h (0 Bft)
16.12.2020 22:30 6,0 C 7,0 C 5,2 C 6,2 C 6,2 C 0,2 C 85 % 89 % 1022,1 hPa 0,0 l/m 0,2 km/h (0 Bft) NO 45 0 min 3,7 C 6,2 C 0,0 km/h (0 Bft)
16.12.2020 22:35 5,9 C 7,0 C 5,2 C 6,2 C 6,2 C 0,3 C 85 % 89 % 1022,1 hPa 0,0 l/m 0,0 km/h (0 Bft) NO 45 0 min 3,6 C 6,2 C 0,0 km/h (0 Bft)
16.12.2020 22:40 5,9 C 7,0 C 5,2 C 6,2 C 6,2 C 0,3 C 85 % 89 % 1022,1 hPa 0,0 l/m 0,0 km/h (0 Bft) NO 45 0 min 3,6 C 6,2 C 0,0 km/h (0 Bft)
16.12.2020 22:45 5,9 C 7,0 C 5,2 C 6,2 C 6,2 C 0,3 C 85 % 89 % 1022,1 hPa 0,0 l/m 0,0 km/h (0 Bft) NO 45 0 min 3,6 C 6,2 C 0,0 km/h (0 Bft)
16.12.2020 22:50 5,9 C 7,0 C 5,2 C 6,2 C 6,2 C 0,3 C 85 % 89 % 1022,1 hPa 0,0 l/m 0,0 km/h (0 Bft) NO 45 0 min 3,6 C 6,2 C 0,0 km/h (0 Bft)
16.12.2020 22:55 5,9 C 7,0 C 5,2 C 6,3 C 6,3 C 0,4 C 85 % 89 % 1022,1 hPa 0,0 l/m 0,0 km/h (0 Bft) NO 45 0 min 3,6 C 6,3 C 0,0 km/h (0 Bft)
16.12.2020 23:00 6,0 C 7,0 C 5,2 C 6,3 C 6,3 C 0,3 C 85 % 89 % 1022,1 hPa 0,0 l/m 0,0 km/h (0 Bft) NO 45 0 min 3,7 C 6,3 C 0,0 km/h (0 Bft)
16.12.2020 23:05 6,0 C 7,0 C 5,2 C 6,3 C 6,3 C 0,3 C 85 % 89 % 1022,1 hPa 0,0 l/m 0,0 km/h (0 Bft) NO 45 0 min 3,7 C 6,3 C 0,0 km/h (0 Bft)
16.12.2020 23:10 6,0 C 7,0 C 5,3 C 6,4 C 6,4 C 0,4 C 85 % 89 % 1022,0 hPa 0,0 l/m 0,2 km/h (0 Bft) NO 45 0 min 3,7 C 6,4 C 0,0 km/h (0 Bft)
16.12.2020 23:15 6,0 C 7,0 C 5,3 C 6,4 C 6,4 C 0,4 C 85 % 89 % 1022,0 hPa 0,0 l/m 0,0 km/h (0 Bft) NO 45 0 min 3,7 C 6,4 C 0,0 km/h (0 Bft)
16.12.2020 23:20 6,0 C 7,0 C 5,3 C 6,4 C 6,4 C 0,4 C 85 % 89 % 1022,0 hPa 0,0 l/m 0,0 km/h (0 Bft) NO 45 0 min 3,7 C 6,4 C 0,0 km/h (0 Bft)
16.12.2020 23:25 6,0 C 7,0 C 5,3 C 6,4 C 6,4 C 0,4 C 85 % 89 % 1022,0 hPa 0,0 l/m 0,0 km/h (0 Bft) NO 45 0 min 3,7 C 6,4 C 0,0 km/h (0 Bft)
16.12.2020 23:30 6,0 C 7,1 C 5,3 C 6,4 C 6,4 C 0,4 C 85 % 89 % 1022,1 hPa 0,0 l/m 0,0 km/h (0 Bft) NO 45 0 min 3,7 C 6,4 C 0,0 km/h (0 Bft)
16.12.2020 23:35 6,0 C 7,1 C 5,3 C 6,4 C 6,4 C 0,4 C 85 % 89 % 1022,1 hPa 0,0 l/m 0,0 km/h (0 Bft) NO 45 0 min 3,7 C 6,4 C 0,0 km/h (0 Bft)
16.12.2020 23:40 6,0 C 7,0 C 5,3 C 6,4 C 6,4 C 0,4 C 85 % 90 % 1022,1 hPa 0,0 l/m 0,0 km/h (0 Bft) S-SO 157 0 min 3,7 C 6,4 C 0,0 km/h (0 Bft)
16.12.2020 23:45 6,0 C 7,0 C 5,3 C 6,4 C 6,4 C 0,4 C 85 % 89 % 1022,1 hPa 0,0 l/m 0,0 km/h (0 Bft) S 180 0 min 3,7 C 6,4 C 0,0 km/h (0 Bft)
16.12.2020 23:50 6,0 C 7,0 C 5,3 C 6,4 C 6,4 C 0,4 C 85 % 89 % 1021,8 hPa 0,0 l/m 0,0 km/h (0 Bft) S 180 0 min 3,7 C 6,4 C 0,0 km/h (0 Bft)
16.12.2020 23:55 6,1 C 7,0 C 5,0 C 6,2 C 6,2 C 0,1 C 85 % 89 % 1021,8 hPa 0,0 l/m 0,0 km/h (0 Bft) SW 225 0 min 3,8 C 6,2 C 0,0 km/h (0 Bft)
_ Min-Zeit 18:45 00:00 18:35 18:35 18:40 04:15 14:05 14:10 00:00 - 03:05 - - - 18:45 18:40 00:00
Minimum _ 3,5 C 6,6 C 2,0 C 3,2 C 2,4 C 0,0 C 81 % 87 % 1018,6 hPa - 0,0 km/h (0 Bft) - - - 1,2 C 2,4 C 0,0 km/h (0 Bft)
_ Max-Zeit 13:45 18:20 13:40 11:30 11:30 11:30 10:50 00:25 19:50 00:00 14:05 - - 08:25 13:40 11:30 00:15
Maximum _ 9,5 C 7,4 C 8,3 C 12,5 C 12,5 C 6,1 C 88 % 93 % 1023,1 hPa 0,0 l/m 7,9 km/h
NO (2 Bft)
- - 5 min 7,0 C 12,5 C 12,9 km/h
S-SO (3 Bft)
Durchschnitt _ 6,8 C 7,0 C 5,9 C 7,3 C 7,3 C 0,6 C 85 % 91 % 1021,2 hPa #0,0 l/m 1,1 km/h (1 Bft) NO - #1:15 h 4,5 C 7,2 C 1,5 km/h (1 Bft)
2020 www.wetterstation-wechselburg.de